Time;durP1;ratioP1;P1;durP2;ratioP2;P2;SDS_P1;SDS_P2;PMS_P1;PMS_P2;Temp;Humidity;BMP_temperature;BMP_pressure;BME280_temperature;BME280_humidity;BME280_pressure;Samples;Min_cycle;Max_cycle;Signal;HPM_P1;HPM_P2
2022/04/13 00:00:27;;;;;;;3.38;2.72;;;15.10;99.90;;;;;;5056928;28;20224;-62
2022/04/13 00:02:53;;;;;;;3.17;2.78;;;15.00;99.90;;;;;;5057243;28;20163;-62
2022/04/13 00:05:19;;;;;;;3.45;2.78;;;14.90;99.90;;;;;;5056974;28;20186;-61
2022/04/13 00:07:45;;;;;;;3.78;2.67;;;14.80;99.90;;;;;;5056686;28;20178;-62
2022/04/13 00:10:10;;;;;;;3.97;2.95;;;14.80;99.90;;;;;;5056813;28;20210;-62
2022/04/13 00:12:37;;;;;;;4.00;2.70;;;14.70;99.90;;;;;;5056708;28;20202;-62
2022/04/13 00:15:04;;;;;;;6.97;3.15;;;14.60;99.90;;;;;;5056601;28;20186;-61
2022/04/13 00:17:30;;;;;;;3.03;2.80;;;14.50;99.90;;;;;;5056735;28;20255;-62
2022/04/13 00:19:57;;;;;;;3.65;3.00;;;14.40;99.90;;;;;;5056781;28;20190;-62
2022/04/13 00:22:22;;;;;;;2.85;2.65;;;14.40;99.90;;;;;;5056268;28;20167;-62
2022/04/13 00:24:48;;;;;;;4.57;2.63;;;14.30;99.90;;;;;;5074556;28;20173;-61
2022/04/13 00:27:14;;;;;;;4.80;3.10;;;14.20;99.90;;;;;;5057238;28;20182;-62
2022/04/13 00:29:40;;;;;;;5.40;3.35;;;14.10;99.90;;;;;;5056266;28;20273;-63
2022/04/13 00:32:06;;;;;;;3.88;2.85;;;14.10;99.90;;;;;;5056530;28;20174;-61
2022/04/13 00:34:32;;;;;;;6.57;3.22;;;14.00;99.90;;;;;;5056245;28;20193;-62
2022/04/13 00:36:58;;;;;;;4.05;3.28;;;13.90;99.90;;;;;;5056031;28;20202;-62
2022/04/13 00:39:25;;;;;;;4.30;3.30;;;13.80;99.90;;;;;;5056304;28;20190;-62
2022/04/13 00:42:03;;;;;;;5.00;2.85;;;13.80;99.90;;;;;;5056204;28;20177;-62
2022/04/13 00:44:30;;;;;;;3.85;3.08;;;13.70;99.90;;;;;;5056195;28;20242;-62
2022/04/13 00:46:56;;;;;;;5.07;3.22;;;13.70;99.90;;;;;;5055403;28;20194;-62
2022/04/13 00:49:23;;;;;;;5.25;3.20;;;13.60;99.90;;;;;;5056154;28;20213;-62
2022/04/13 00:51:53;;;;;;;5.13;3.10;;;13.60;99.90;;;;;;5056422;28;20651;-62
2022/04/13 00:54:19;;;;;;;3.80;3.30;;;13.60;99.90;;;;;;5069931;28;20194;-64
2022/04/13 00:56:48;;;;;;;5.00;3.17;;;13.60;99.90;;;;;;5061996;28;20206;-63
2022/04/13 00:59:14;;;;;;;3.63;3.00;;;13.50;99.90;;;;;;5056028;28;20198;-64
2022/04/13 01:01:42;;;;;;;3.60;2.88;;;13.50;99.90;;;;;;5056420;28;20219;-63
2022/04/13 01:04:11;;;;;;;4.15;3.20;;;13.50;99.90;;;;;;5055745;28;20171;-62
2022/04/13 01:06:38;;;;;;;3.80;3.40;;;13.50;99.90;;;;;;5055669;28;20519;-62
2022/04/13 01:09:04;;;;;;;4.97;3.10;;;13.50;99.90;;;;;;5055393;28;20213;-62
2022/04/13 01:11:30;;;;;;;7.15;3.50;;;13.50;99.90;;;;;;5055595;28;20190;-63
2022/04/13 01:13:57;;;;;;;3.75;3.20;;;13.40;99.90;;;;;;5055776;28;20643;-63
2022/04/13 01:16:24;;;;;;;4.40;3.50;;;13.40;99.90;;;;;;5055658;28;20524;-63
2022/04/13 01:18:51;;;;;;;4.18;3.40;;;13.40;99.90;;;;;;5055367;28;20709;-62
2022/04/13 01:21:19;;;;;;;4.35;3.58;;;13.40;99.90;;;;;;5055379;28;20224;-63
2022/04/13 01:23:45;;;;;;;5.10;3.40;;;13.40;99.90;;;;;;5064351;28;20174;-62
2022/04/13 01:26:12;;;;;;;5.20;3.47;;;13.40;99.90;;;;;;5066146;28;20634;-62
2022/04/13 01:28:38;;;;;;;6.10;3.63;;;13.40;99.90;;;;;;5055431;28;20174;-61
2022/04/13 01:31:05;;;;;;;5.32;4.20;;;13.30;99.90;;;;;;5055196;28;20193;-62
2022/04/13 01:33:31;;;;;;;6.60;3.80;;;13.30;99.90;;;;;;5055500;28;20150;-62
2022/04/13 01:36:00;;;;;;;5.75;3.38;;;13.20;99.90;;;;;;5055101;28;20182;-62
2022/04/13 01:38:28;;;;;;;4.38;3.58;;;13.30;99.90;;;;;;5054939;28;20289;-62
2022/04/13 01:40:55;;;;;;;6.10;3.45;;;13.20;99.90;;;;;;5055001;28;20205;-62
2022/04/13 01:43:21;;;;;;;3.83;3.40;;;13.20;99.90;;;;;;5054983;28;20531;-62
2022/04/13 01:45:46;;;;;;;3.83;3.33;;;13.20;99.90;;;;;;5054964;28;20171;-61
2022/04/13 01:48:12;;;;;;;7.03;3.67;;;13.10;99.90;;;;;;5054869;28;20190;-62
2022/04/13 01:50:37;;;;;;;4.95;3.58;;;13.10;99.90;;;;;;5053719;28;20234;-61
2022/04/13 01:53:03;;;;;;;4.93;3.88;;;13.00;99.90;;;;;;5058409;28;20181;-63
2022/04/13 01:55:29;;;;;;;6.43;3.60;;;13.00;99.90;;;;;;5071402;28;20187;-62
2022/04/13 01:57:55;;;;;;;4.32;3.70;;;12.90;99.90;;;;;;5054825;28;20203;-62
2022/04/13 02:00:20;;;;;;;4.50;3.65;;;12.80;99.90;;;;;;5054556;28;20194;-63
2022/04/13 02:02:46;;;;;;;3.90;3.45;;;12.80;99.90;;;;;;5054555;28;20186;-62
2022/04/13 02:05:12;;;;;;;4.38;3.55;;;12.80;99.90;;;;;;5055185;28;20521;-62
2022/04/13 02:07:38;;;;;;;4.57;3.80;;;12.70;99.90;;;;;;5054537;28;20181;-62
2022/04/13 02:10:05;;;;;;;3.80;3.45;;;12.70;99.90;;;;;;5054260;28;20574;-62
2022/04/13 02:12:32;;;;;;;5.15;3.75;;;12.60;99.90;;;;;;5054445;28;20182;-61
2022/04/13 02:14:58;;;;;;;4.05;3.28;;;12.60;99.90;;;;;;5054336;28;20167;-62
2022/04/13 02:17:23;;;;;;;4.82;4.15;;;12.50;99.90;;;;;;5054224;28;20264;-62
2022/04/13 02:19:49;;;;;;;5.93;4.00;;;12.50;99.90;;;;;;5054352;28;20193;-62
2022/04/13 02:22:15;;;;;;;6.45;3.60;;;12.40;99.90;;;;;;5054536;28;20189;-61
2022/04/13 02:24:41;;;;;;;4.53;3.28;;;12.40;99.90;;;;;;5070883;28;20646;-62
2022/04/13 02:27:07;;;;;;;4.00;3.65;;;12.40;99.90;;;;;;5057233;28;20265;-62
2022/04/13 02:29:36;;;;;;;5.40;3.60;;;12.30;99.90;;;;;;5052750;28;20202;-61
2022/04/13 02:32:03;;;;;;;4.18;3.78;;;12.30;99.90;;;;;;5054017;28;20170;-61
2022/04/13 02:34:29;;;;;;;6.07;3.95;;;12.30;99.90;;;;;;5054352;28;20258;-62
2022/04/13 02:36:55;;;;;;;4.47;3.70;;;12.30;99.90;;;;;;5054116;28;20277;-61
2022/04/13 02:39:21;;;;;;;4.55;4.03;;;12.30;99.90;;;;;;5052366;28;20256;-62
2022/04/13 02:41:46;;;;;;;4.68;3.58;;;12.30;99.90;;;;;;5053814;28;20628;-62
2022/04/13 02:44:12;;;;;;;5.93;4.10;;;12.20;99.90;;;;;;5053831;28;20174;-62
2022/04/13 02:46:38;;;;;;;4.88;3.70;;;12.20;99.90;;;;;;5053787;28;20178;-62
2022/04/13 02:49:03;;;;;;;4.00;3.60;;;12.20;99.90;;;;;;5053812;28;20604;-62
2022/04/13 02:51:29;;;;;;;5.63;3.75;;;12.20;99.90;;;;;;5053724;28;20643;-62
2022/04/13 02:53:55;;;;;;;4.40;3.85;;;12.10;99.90;;;;;;5064141;28;20186;-61
2022/04/13 02:56:21;;;;;;;5.82;3.90;;;12.10;99.90;;;;;;5063295;28;20273;-62
2022/04/13 02:58:46;;;;;;;5.00;3.90;;;12.00;99.90;;;;;;5053727;28;20166;-62
2022/04/13 03:01:12;;;;;;;4.72;4.03;;;12.00;99.90;;;;;;5054135;28;20245;-61
2022/04/13 03:03:38;;;;;;;4.78;3.90;;;12.00;99.90;;;;;;5052762;28;20728;-61
2022/04/13 03:06:04;;;;;;;4.53;3.43;;;11.90;99.90;;;;;;5053994;28;20174;-62
2022/04/13 03:08:29;;;;;;;5.78;4.05;;;11.80;99.90;;;;;;5053362;28;20167;-64
2022/04/13 03:10:55;;;;;;;5.25;4.35;;;11.70;99.90;;;;;;5052897;28;20717;-62
2022/04/13 03:13:21;;;;;;;8.98;4.30;;;11.70;99.90;;;;;;5053509;28;20174;-62
2022/04/13 03:15:47;;;;;;;5.00;4.10;;;11.60;99.90;;;;;;5053412;28;20203;-61
2022/04/13 03:18:12;;;;;;;5.18;3.95;;;11.60;99.90;;;;;;5053374;28;20205;-62
2022/04/13 03:20:38;;;;;;;9.88;4.50;;;11.50;99.90;;;;;;5053402;28;20535;-62
2022/04/13 03:23:04;;;;;;;4.65;3.95;;;11.50;99.90;;;;;;5056792;28;20178;-62
2022/04/13 03:25:30;;;;;;;7.87;4.53;;;11.50;99.90;;;;;;5070246;28;20231;-63
2022/04/13 03:27:56;;;;;;;5.80;4.35;;;11.40;99.90;;;;;;5053318;28;20531;-63
2022/04/13 03:30:23;;;;;;;5.63;4.47;;;11.30;99.90;;;;;;5053198;28;20354;-65
2022/04/13 03:32:50;;;;;;;5.82;4.03;;;11.30;99.90;;;;;;5053266;28;20174;-64
2022/04/13 03:35:15;;;;;;;5.60;3.73;;;11.20;99.90;;;;;;5053271;28;20178;-64
2022/04/13 03:37:41;;;;;;;7.43;4.13;;;11.20;99.90;;;;;;5052872;28;20206;-65
2022/04/13 03:40:09;;;;;;;4.57;4.00;;;11.20;99.90;;;;;;5053110;28;20194;-65
2022/04/13 03:42:37;;;;;;;11.27;4.93;;;11.10;99.90;;;;;;5053489;28;20175;-64
2022/04/13 03:45:04;;;;;;;6.60;4.70;;;11.10;99.90;;;;;;5053731;28;20170;-64
2022/04/13 03:47:30;;;;;;;11.90;5.57;;;11.00;99.90;;;;;;5053155;28;20173;-63
2022/04/13 03:49:56;;;;;;;9.80;5.20;;;11.00;99.90;;;;;;5053153;28;20198;-62
2022/04/13 03:52:22;;;;;;;8.67;5.23;;;11.00;99.90;;;;;;5056718;28;20659;-62
2022/04/13 03:54:49;;;;;;;6.87;4.70;;;10.90;99.90;;;;;;5069927;28;20200;-61
2022/04/13 03:57:15;;;;;;;8.20;5.20;;;10.90;99.90;;;;;;5053758;28;20230;-62
2022/04/13 03:59:42;;;;;;;7.00;4.53;;;10.80;99.90;;;;;;5051796;28;20205;-62
2022/04/13 04:02:16;;;;;;;5.10;4.60;;;10.80;99.90;;;;;;5051727;28;20209;-62
2022/04/13 04:04:42;;;;;;;7.87;5.17;;;10.70;99.90;;;;;;5053067;28;20171;-63
2022/04/13 04:07:09;;;;;;;6.20;4.43;;;10.60;99.90;;;;;;5051511;28;20187;-63
2022/04/13 04:09:35;;;;;;;5.83;4.40;;;10.50;99.90;;;;;;5051261;28;20256;-62
2022/04/13 04:12:03;;;;;;;9.57;4.70;;;10.50;99.90;;;;;;5052697;28;20702;-62
2022/04/13 04:14:32;;;;;;;7.47;4.47;;;10.40;99.90;;;;;;5051621;28;20178;-62
2022/04/13 04:17:01;;;;;;;7.30;4.87;;;10.30;99.90;;;;;;5053051;28;20209;-62
2022/04/13 04:19:47;;;;;;;5.60;4.40;;;10.30;99.90;;;;;;5052781;28;20348;-62
2022/04/13 04:22:13;;;;;;;6.23;4.57;;;10.30;99.90;;;;;;5052589;28;20182;-62
2022/04/13 04:24:42;;;;;;;4.53;4.10;;;10.30;99.90;;;;;;5071833;28;20262;-62
2022/04/13 04:27:12;;;;;;;4.73;4.30;;;10.40;99.90;;;;;;5041892;28;20202;-63
2022/04/13 04:29:38;;;;;;;5.33;4.33;;;10.40;99.90;;;;;;5055116;28;20194;-62
2022/04/13 04:32:11;;;;;;;5.27;4.17;;;10.50;99.90;;;;;;5056997;28;20292;-62
2022/04/13 04:34:37;;;;;;;9.03;4.90;;;10.50;99.90;;;;;;5056253;28;20635;-62
2022/04/13 04:37:05;;;;;;;6.20;4.60;;;10.50;99.90;;;;;;5056401;28;20198;-62
2022/04/13 04:39:34;;;;;;;5.03;4.40;;;10.40;99.90;;;;;;5055624;28;20251;-62
2022/04/13 04:42:02;;;;;;;7.03;4.53;;;10.50;99.90;;;;;;5055604;28;20175;-63
2022/04/13 04:44:36;;;;;;;5.63;4.77;;;10.50;99.90;;;;;;5055544;28;20174;-62
2022/04/13 04:47:04;;;;;;;7.33;4.47;;;10.40;99.90;;;;;;5055302;28;20265;-61
2022/04/13 04:49:30;;;;;;;5.00;4.20;;;10.40;99.90;;;;;;5056372;28;20282;-62
2022/04/13 04:52:04;;;;;;;6.37;4.87;;;10.40;99.90;;;;;;5054810;28;20265;-61
2022/04/13 04:54:34;;;;;;;7.13;4.80;;;10.30;99.90;;;;;;5070244;28;20185;-62
2022/04/13 04:57:00;;;;;;;5.80;4.63;;;10.10;99.90;;;;;;5058704;28;20206;-62
2022/04/13 04:59:32;;;;;;;7.90;4.60;;;10.10;99.90;;;;;;5055024;28;20202;-61
2022/04/13 05:02:03;;;;;;;9.00;5.03;;;10.10;99.90;;;;;;5054860;28;20274;-61
2022/04/13 05:04:30;;;;;;;8.07;4.97;;;10.10;99.90;;;;;;5054548;28;20611;-62
2022/04/13 05:06:56;;;;;;;6.90;4.53;;;10.20;99.90;;;;;;5054481;28;20266;-61
2022/04/13 05:09:24;;;;;;;7.07;4.60;;;10.20;99.90;;;;;;5054042;28;20403;-61
2022/04/13 05:11:52;;;;;;;6.07;4.23;;;10.20;99.90;;;;;;5055624;28;20201;-62
2022/04/13 05:14:20;;;;;;;5.77;5.20;;;10.20;99.90;;;;;;5055592;28;20178;-62
2022/04/13 05:16:49;;;;;;;6.93;4.93;;;10.20;99.90;;;;;;5054294;28;20198;-62
2022/04/13 05:19:18;;;;;;;6.00;4.50;;;10.20;99.90;;;;;;5055473;28;20194;-62
2022/04/13 05:21:48;;;;;;;10.30;4.93;;;10.30;99.90;;;;;;5055502;28;20175;-62
2022/04/13 05:24:14;;;;;;;11.77;4.73;;;10.30;99.90;;;;;;5068516;28;20197;-62
2022/04/13 05:26:42;;;;;;;9.37;4.93;;;10.30;99.90;;;;;;5061064;28;20218;-61
2022/04/13 05:29:08;;;;;;;9.10;5.07;;;10.40;99.90;;;;;;5037576;28;20198;-61
2022/04/13 05:31:34;;;;;;;6.57;5.60;;;10.40;99.90;;;;;;5054088;28;20643;-62
2022/04/13 05:34:05;;;;;;;8.07;5.60;;;10.40;99.90;;;;;;5053536;28;20173;-61
2022/04/13 05:36:32;;;;;;;7.23;4.80;;;10.40;99.90;;;;;;5053864;28;20615;-63
2022/04/13 05:39:00;;;;;;;7.13;5.20;;;10.40;99.90;;;;;;5037230;28;20572;-61
2022/04/13 05:41:26;;;;;;;6.37;4.87;;;10.50;99.90;;;;;;5037579;28;20183;-62
2022/04/13 05:43:52;;;;;;;6.87;5.43;;;10.60;99.90;;;;;;5054957;28;20178;-61
2022/04/13 05:46:21;;;;;;;7.63;5.23;;;10.60;99.90;;;;;;5055028;28;20665;-62
2022/04/13 05:48:47;;;;;;;7.70;5.07;;;10.70;99.90;;;;;;5054506;28;20190;-61
2022/04/13 05:51:13;;;;;;;6.50;5.20;;;10.80;99.90;;;;;;5053489;28;20571;-61
2022/04/13 05:53:42;;;;;;;7.93;5.20;;;10.80;99.90;;;;;;5061723;28;20243;-62
2022/04/13 05:56:10;;;;;;;8.10;5.37;;;10.90;99.90;;;;;;5066064;28;20729;-61
2022/04/13 05:58:38;;;;;;;7.80;5.43;;;11.00;99.90;;;;;;5053299;28;20237;-61
2022/04/13 06:01:04;;;;;;;7.00;5.27;;;11.00;99.90;;;;;;5053735;28;20182;-62
2022/04/13 06:03:31;;;;;;;6.60;5.57;;;11.10;99.90;;;;;;5053551;28;20216;-62
2022/04/13 06:05:57;;;;;;;7.20;5.37;;;11.20;99.90;;;;;;5053176;28;20182;-62
2022/04/13 06:08:28;;;;;;;7.17;5.73;;;11.30;99.90;;;;;;5054240;28;20183;-62
2022/04/13 06:10:58;;;;;;;7.80;5.23;;;11.40;99.90;;;;;;5053064;28;20216;-61
2022/04/13 06:13:45;;;;;;;10.67;5.90;;;11.40;99.90;;;;;;5053203;28;20659;-62
2022/04/13 06:16:21;;;;;;;7.60;5.23;;;11.50;99.90;;;;;;5050332;28;20190;-62
2022/04/13 06:18:47;;;;;;;7.57;4.80;;;11.60;99.90;;;;;;5052853;28;20288;-62
2022/04/13 06:21:19;;;;;;;9.40;4.90;;;11.70;99.90;;;;;;5052941;28;20174;-62
2022/04/13 06:23:50;;;;;;;7.07;4.97;;;11.70;99.90;;;;;;5061991;28;20220;-62
2022/04/13 06:26:19;;;;;;;8.37;4.90;;;11.80;99.90;;;;;;5063524;28;20651;-62
2022/04/13 06:28:45;;;;;;;6.70;5.00;;;11.80;99.90;;;;;;5052820;28;20178;-62
2022/04/13 06:31:16;;;;;;;6.82;4.85;;;12.00;99.90;;;;;;5052832;28;20182;-62
2022/04/13 06:33:41;;;;;;;8.53;4.87;;;12.10;99.90;;;;;;5053471;28;20166;-63
2022/04/13 06:36:08;;;;;;;10.15;5.00;;;12.20;99.90;;;;;;5054321;28;20167;-63
2022/04/13 06:38:34;;;;;;;7.80;5.70;;;12.30;99.90;;;;;;5053262;28;20637;-61
2022/04/13 06:41:00;;;;;;;8.20;5.23;;;12.50;99.90;;;;;;5054179;28;20604;-61
2022/04/13 06:43:26;;;;;;;5.70;4.60;;;12.60;99.90;;;;;;5053922;28;20165;-63
2022/04/13 06:45:55;;;;;;;7.20;4.82;;;12.70;99.90;;;;;;5053382;28;20519;-63
2022/04/13 06:48:23;;;;;;;5.45;4.88;;;12.80;99.90;;;;;;5053951;28;20159;-62
2022/04/13 06:50:49;;;;;;;11.07;5.53;;;13.00;99.90;;;;;;5053750;28;20191;-61
2022/04/13 06:53:17;;;;;;;7.82;5.63;;;13.10;99.90;;;;;;5058540;28;20181;-62
2022/04/13 06:55:43;;;;;;;6.43;5.35;;;13.20;99.90;;;;;;5068429;28;20214;-62
2022/04/13 06:58:09;;;;;;;9.40;6.07;;;13.30;99.90;;;;;;5052324;28;20197;-62
2022/04/13 07:00:35;;;;;;;7.60;5.55;;;13.50;99.90;;;;;;5053563;28;20534;-61
2022/04/13 07:03:01;;;;;;;7.85;5.07;;;13.50;99.90;;;;;;5053573;28;20193;-62
2022/04/13 07:05:27;;;;;;;7.93;5.30;;;13.70;99.90;;;;;;5054120;28;20162;-62
2022/04/13 07:07:55;;;;;;;6.82;5.70;;;13.90;99.90;;;;;;5053933;28;20171;-62
2022/04/13 07:10:21;;;;;;;7.97;5.28;;;14.00;99.90;;;;;;5053202;28;20580;-62
2022/04/13 07:12:46;;;;;;;9.35;5.65;;;14.20;99.90;;;;;;5053739;28;20175;-62
2022/04/13 07:15:16;;;;;;;6.97;5.30;;;14.40;99.90;;;;;;5053586;28;20206;-61
2022/04/13 07:17:43;;;;;;;11.23;5.88;;;14.60;99.90;;;;;;5052252;28;20200;-62
2022/04/13 07:20:09;;;;;;;8.10;5.25;;;14.90;99.90;;;;;;5053341;28;20191;-61
2022/04/13 07:22:48;;;;;;;7.40;5.32;;;15.20;99.90;;;;;;5053399;28;20170;-62
2022/04/13 07:25:14;;;;;;;6.30;5.00;;;15.30;99.90;;;;;;5054541;28;20170;-62
2022/04/13 07:27:40;;;;;;;11.07;5.65;;;15.30;99.90;;;;;;5073716;28;20190;-62
2022/04/13 07:30:07;;;;;;;7.60;4.80;;;15.60;99.90;;;;;;5073861;28;20189;-62
2022/04/13 07:32:33;;;;;;;7.53;5.03;;;15.60;99.90;;;;;;5074086;28;20200;-62
2022/04/13 07:34:59;;;;;;;9.48;5.25;;;15.70;99.90;;;;;;5073625;28;20235;-62
2022/04/13 07:37:25;;;;;;;8.27;4.63;;;16.00;99.90;;;;;;5073593;28;20201;-63
2022/04/13 07:39:55;;;;;;;8.30;4.82;;;16.10;99.90;;;;;;5073103;28;20259;-62
2022/04/13 07:42:21;;;;;;;8.13;5.35;;;16.30;99.90;;;;;;5073644;28;20166;-62
2022/04/13 07:44:47;;;;;;;11.68;5.82;;;16.40;99.90;;;;;;5073964;28;20225;-63
2022/04/13 07:47:14;;;;;;;9.23;5.47;;;16.50;99.90;;;;;;5073691;28;20222;-63
2022/04/13 07:49:41;;;;;;;7.53;5.30;;;16.50;99.90;;;;;;5073318;28;20238;-63
2022/04/13 07:52:07;;;;;;;6.55;4.97;;;16.30;99.90;;;;;;5073220;28;20184;-63
2022/04/13 07:54:34;;;;;;;7.88;5.28;;;16.30;99.90;;;;;;5057283;28;20190;-63
2022/04/13 07:56:59;;;;;;;12.60;5.47;;;16.30;99.90;;;;;;5071373;28;20246;-63
2022/04/13 07:59:25;;;;;;;10.02;5.35;;;16.50;99.90;;;;;;5077354;28;20193;-63
2022/04/13 08:01:51;;;;;;;12.05;6.07;;;16.60;99.90;;;;;;5077103;28;20177;-63
2022/04/13 08:04:16;;;;;;;9.18;5.22;;;16.80;99.90;;;;;;5077264;28;20201;-62
2022/04/13 08:06:42;;;;;;;9.13;5.78;;;16.90;99.90;;;;;;5076860;28;20174;-63
2022/04/13 08:09:08;;;;;;;11.80;6.28;;;17.10;99.90;;;;;;5075309;28;20194;-62
2022/04/13 08:11:33;;;;;;;10.25;5.95;;;17.20;99.90;;;;;;5076726;28;20235;-63
2022/04/13 08:13:59;;;;;;;9.40;5.53;;;17.60;99.90;;;;;;5076725;28;20174;-63
2022/04/13 08:16:25;;;;;;;11.70;5.93;;;17.80;99.90;;;;;;5075748;28;20205;-63
2022/04/13 08:18:51;;;;;;;12.30;6.95;;;18.20;99.90;;;;;;5076692;28;20231;-63
2022/04/13 08:21:16;;;;;;;15.50;6.57;;;18.60;99.90;;;;;;5077120;28;20174;-63
2022/04/13 08:23:42;;;;;;;14.00;6.88;;;18.60;99.90;;;;;;5066146;28;20189;-62
2022/04/13 08:26:08;;;;;;;12.32;6.45;;;19.10;99.90;;;;;;5065249;28;20178;-62
2022/04/13 08:28:33;;;;;;;8.68;5.20;;;19.90;99.90;;;;;;5076895;28;20231;-63
2022/04/13 08:31:02;;;;;;;10.45;6.22;;;20.30;99.90;;;;;;5076380;28;20324;-62
2022/04/13 08:33:28;;;;;;;11.52;6.40;;;20.80;99.90;;;;;;5076502;28;20665;-63
2022/04/13 08:35:53;;;;;;;12.98;6.18;;;20.90;99.90;;;;;;5076418;28;20189;-63
2022/04/13 08:38:19;;;;;;;10.80;5.68;;;20.70;99.90;;;;;;5075471;28;20201;-64
2022/04/13 08:40:56;;;;;;;14.63;6.10;;;20.80;99.90;;;;;;5076032;28;20217;-64
2022/04/13 08:43:28;;;;;;;10.98;5.95;;;21.10;99.90;;;;;;5076527;28;20176;-64
2022/04/13 08:45:59;;;;;;;12.73;6.15;;;21.50;99.90;;;;;;5074985;28;20540;-64
2022/04/13 08:48:26;;;;;;;11.63;5.93;;;21.20;99.90;;;;;;5074881;28;20646;-64
2022/04/13 08:51:15;;;;;;;11.48;6.25;;;21.60;99.90;;;;;;5076035;28;20681;-64
2022/04/13 08:53:44;;;;;;;13.13;6.35;;;21.90;99.90;;;;;;5067314;28;20182;-64
2022/04/13 08:56:13;;;;;;;10.80;6.25;;;21.90;99.90;;;;;;5065380;28;20182;-64
2022/04/13 08:59:04;;;;;;;15.75;6.35;;;22.10;99.90;;;;;;5076326;28;20209;-63
2022/04/13 09:01:41;;;;;;;15.15;6.00;;;22.60;99.90;;;;;;5076547;28;20178;-63
2022/04/13 09:04:10;;;;;;;14.73;6.30;;;23.00;99.90;;;;;;5074667;28;20166;-63
2022/04/13 09:06:39;;;;;;;10.85;6.10;;;23.40;99.90;;;;;;5075966;28;20173;-63
2022/04/13 09:09:14;;;;;;;9.68;5.88;;;23.50;99.90;;;;;;5074822;28;20186;-63
2022/04/13 09:11:44;;;;;;;15.13;6.50;;;23.90;99.90;;;;;;5075847;28;20236;-63
2022/04/13 09:14:10;;;;;;;12.32;6.10;;;23.90;99.90;;;;;;5075739;28;20273;-63
2022/04/13 09:16:36;;;;;;;11.52;5.85;;;23.80;99.90;;;;;;5075868;28;20178;-63
2022/04/13 09:19:03;;;;;;;11.73;7.03;;;24.20;99.90;;;;;;5075652;28;20186;-64
2022/04/13 09:21:32;;;;;;;14.65;7.20;;;24.10;99.90;;;;;;5074314;28;20676;-63
2022/04/13 09:24:02;;;;;;;14.38;7.15;;;23.60;99.90;;;;;;5064186;28;20197;-64
2022/04/13 09:26:29;;;;;;;16.23;8.00;;;23.30;99.90;;;;;;5066892;28;20224;-64
2022/04/13 09:28:55;;;;;;;14.48;7.80;;;22.40;99.90;;;;;;5075300;28;20182;-63
2022/04/13 09:31:21;;;;;;;15.55;7.55;;;21.40;99.90;;;;;;5075905;28;20625;-63
2022/04/13 09:33:47;;;;;;;19.27;7.75;;;21.10;99.90;;;;;;5075638;28;20174;-63
2022/04/13 09:36:13;;;;;;;13.30;6.75;;;20.90;99.90;;;;;;5075335;28;20177;-64
2022/04/13 09:38:39;;;;;;;15.23;8.20;;;21.30;99.90;;;;;;5075379;28;20204;-63
2022/04/13 09:41:07;;;;;;;17.58;9.23;;;21.10;99.90;;;;;;5075059;28;20189;-64
2022/04/13 09:43:33;;;;;;;12.85;7.05;;;21.10;99.90;;;;;;5075037;28;20245;-64
2022/04/13 09:45:58;;;;;;;15.18;8.65;;;21.60;99.90;;;;;;5075294;28;20251;-63
2022/04/13 09:48:26;;;;;;;16.42;7.88;;;21.50;99.90;;;;;;5074998;28;20193;-64
2022/04/13 09:50:52;;;;;;;16.55;8.32;;;21.80;99.90;;;;;;5075199;28;20190;-65
2022/04/13 09:53:19;;;;;;;15.00;8.07;;;21.60;99.90;;;;;;5069183;28;20228;-64
2022/04/13 09:55:49;;;;;;;16.67;8.55;;;21.20;99.90;;;;;;5060099;28;20174;-63
2022/04/13 09:58:18;;;;;;;20.25;7.22;;;21.30;99.90;;;;;;5074703;28;20613;-64
2022/04/13 10:00:46;;;;;;;18.17;8.20;;;21.30;99.90;;;;;;5074603;28;20198;-64
2022/04/13 10:03:32;;;;;;;12.18;7.25;;;21.40;99.90;;;;;;5074819;28;20161;-65
2022/04/13 10:05:59;;;;;;;13.82;7.18;;;21.70;99.90;;;;;;5075012;28;20174;-64
2022/04/13 10:08:27;;;;;;;10.55;6.10;;;21.90;99.90;;;;;;5074582;28;20595;-64
2022/04/13 10:10:57;;;;;;;18.40;7.70;;;22.00;99.90;;;;;;5074044;28;20259;-64
2022/04/13 10:13:34;;;;;;;13.80;7.20;;;22.20;99.90;;;;;;5074707;28;20185;-64
2022/04/13 10:16:07;;;;;;;13.38;6.85;;;22.00;99.90;;;;;;5073191;28;20546;-64
2022/04/13 10:18:59;;;;;;;12.38;6.65;;;22.10;99.90;;;;;;5074822;28;20194;-64
2022/04/13 10:21:45;;;;;;;13.43;6.50;;;22.10;99.90;;;;;;5073838;28;20150;-64
2022/04/13 10:24:27;;;;;;;11.43;6.80;;;22.40;99.90;;;;;;5061284;28;20181;-64
2022/04/13 10:27:09;;;;;;;16.02;7.88;;;22.60;99.90;;;;;;5069367;28;20185;-63
2022/04/13 10:29:37;;;;;;;14.45;7.82;;;22.30;99.90;;;;;;5074577;28;20569;-64
2022/04/13 10:32:07;;;;;;;11.32;7.03;;;22.00;99.90;;;;;;5074310;28;20235;-64
2022/04/13 10:34:42;;;;;;;16.40;7.82;;;22.20;99.90;;;;;;5074307;28;20277;-64
2022/04/13 10:37:10;;;;;;;14.93;6.15;;;22.20;99.90;;;;;;5074749;28;20193;-64
2022/04/13 10:39:36;;;;;;;14.07;7.55;;;22.40;99.90;;;;;;5072530;28;20194;-64
2022/04/13 10:42:04;;;;;;;13.80;7.07;;;22.70;99.90;;;;;;5074358;28;20174;-64
2022/04/13 10:44:48;;;;;;;15.30;7.43;;;23.00;99.90;;;;;;5074265;28;20169;-64
2022/04/13 10:47:21;;;;;;;18.92;8.32;;;23.30;99.90;;;;;;5074645;28;20160;-65
2022/04/13 10:50:00;;;;;;;18.15;8.32;;;23.50;99.90;;;;;;5074270;28;20189;-64
2022/04/13 10:52:58;;;;;;;16.45;7.50;;;23.30;99.90;;;;;;5074475;28;20158;-64
2022/04/13 10:55:27;;;;;;;14.13;7.63;;;23.10;99.90;;;;;;5055061;28;20205;-64
2022/04/13 10:57:57;;;;;;;11.50;7.03;;;23.20;99.90;;;;;;5074052;28;20652;-65
2022/04/13 11:00:24;;;;;;;13.75;7.55;;;23.30;99.90;;;;;;5073730;28;20190;-64
2022/04/13 11:03:01;;;;;;;17.95;7.70;;;23.70;99.90;;;;;;5073627;28;20170;-64
2022/04/13 11:05:27;;;;;;;12.43;7.15;;;23.90;99.90;;;;;;5073718;28;20177;-64
2022/04/13 11:08:14;;;;;;;12.23;6.00;;;23.80;99.90;;;;;;5073735;28;20252;-64
2022/04/13 11:10:42;;;;;;;16.90;7.80;;;23.80;99.90;;;;;;5073295;28;20211;-64
2022/04/13 11:13:08;;;;;;;11.68;6.82;;;23.60;99.90;;;;;;5073664;28;20173;-64
2022/04/13 11:15:45;;;;;;;14.88;8.15;;;23.40;99.90;;;;;;5073508;28;20205;-64
2022/04/13 11:18:17;;;;;;;20.67;9.05;;;23.10;99.90;;;;;;5073805;28;20193;-64
2022/04/13 11:21:01;;;;;;;14.70;8.25;;;22.90;99.90;;;;;;5073481;28;20686;-64
2022/04/13 11:23:50;;;;;;;14.75;7.15;;;22.70;99.90;;;;;;5067449;28;20650;-63
2022/04/13 11:26:34;;;;;;;14.23;7.32;;;22.60;99.90;;;;;;5063313;28;20169;-63
2022/04/13 11:29:09;;;;;;;16.15;6.93;;;22.50;99.90;;;;;;5074640;28;20614;-63
2022/04/13 11:31:59;;;;;;;19.10;6.78;;;22.40;99.90;;;;;;5072169;28;20176;-63
2022/04/13 11:34:40;;;;;;;13.57;6.55;;;22.30;99.90;;;;;;5073347;28;20177;-62
2022/04/13 11:37:12;;;;;;;15.48;6.55;;;22.60;99.90;;;;;;5073145;28;20279;-63
2022/04/13 11:39:48;;;;;;;19.33;6.90;;;22.90;99.90;;;;;;5073349;28;20299;-63
2022/04/13 11:42:40;;;;;;;16.73;6.40;;;22.80;99.90;;;;;;5073407;28;20602;-63
2022/04/13 11:45:11;;;;;;;15.05;6.72;;;22.90;99.90;;;;;;5072555;28;20200;-63
2022/04/13 11:47:43;;;;;;;12.38;6.20;;;22.70;99.90;;;;;;5073262;28;20236;-64
2022/04/13 11:50:18;;;;;;;13.18;6.32;;;22.90;99.90;;;;;;5071869;28;20202;-64
2022/04/13 11:52:44;;;;;;;18.73;5.85;;;23.10;99.90;;;;;;5070958;28;20187;-64
2022/04/13 11:55:20;;;;;;;12.45;5.03;;;23.60;99.90;;;;;;5053544;28;20540;-64
2022/04/13 11:58:04;;;;;;;13.43;5.78;;;24.20;99.90;;;;;;5073039;28;20197;-64
2022/04/13 12:00:57;;;;;;;9.82;5.15;;;24.40;99.90;;;;;;5073187;28;20276;-64
2022/04/13 12:03:33;;;;;;;9.70;5.80;;;24.40;99.90;;;;;;5073218;28;20146;-64
2022/04/13 12:06:07;;;;;;;12.60;5.28;;;25.00;99.90;;;;;;5072680;28;20560;-64
2022/04/13 12:08:37;;;;;;;11.82;4.40;;;25.60;99.90;;;;;;5073421;28;20218;-64
2022/04/13 12:11:04;;;;;;;9.13;5.50;;;26.00;99.90;;;;;;5071315;28;20362;-64
2022/04/13 12:13:34;;;;;;;11.48;5.60;;;26.20;99.90;;;;;;5072813;28;20204;-64
2022/04/13 12:16:01;;;;;;;13.07;5.47;;;26.00;99.90;;;;;;5073146;28;20166;-64
2022/04/13 12:18:29;;;;;;;12.45;5.68;;;25.80;99.90;;;;;;5072625;28;20320;-64
2022/04/13 12:21:08;;;;;;;12.32;5.60;;;25.50;99.90;;;;;;5071429;28;20695;-64
2022/04/13 12:23:39;;;;;;;11.43;4.63;;;25.00;99.90;;;;;;5065419;28;20195;-64
2022/04/13 12:26:08;;;;;;;10.93;4.30;;;25.00;99.90;;;;;;5059387;28;20188;-64
2022/04/13 12:28:34;;;;;;;11.85;5.25;;;24.90;99.90;;;;;;5072605;28;20163;-64
2022/04/13 12:31:02;;;;;;;10.45;5.07;;;25.10;99.90;;;;;;5073184;28;20202;-64
2022/04/13 12:33:29;;;;;;;13.32;5.00;;;25.00;99.90;;;;;;5072725;28;20550;-64
2022/04/13 12:35:56;;;;;;;10.75;4.32;;;25.10;99.90;;;;;;5072674;28;20174;-64
2022/04/13 12:38:26;;;;;;;11.65;4.47;;;24.90;99.90;;;;;;5073217;28;20183;-64
2022/04/13 12:41:21;;;;;;;11.60;4.60;;;24.60;99.90;;;;;;5072412;28;20243;-63
2022/04/13 12:43:59;;;;;;;13.90;4.88;;;23.60;99.90;;;;;;5074177;28;20182;-63
2022/04/13 12:46:30;;;;;;;9.35;4.30;;;23.10;99.90;;;;;;5076351;28;20180;-63
2022/04/13 12:49:01;;;;;;;9.23;4.07;;;23.00;99.90;;;;;;5076609;28;20606;-62
2022/04/13 12:51:38;;;;;;;10.90;4.13;;;22.70;99.90;;;;;;5076437;28;20512;-62